RYR2HU EIDW-LFBH
Flight info
| Callsign | RYR2HU |
|---|---|
| Flight time | 1h 25m |
| Altitude | 37000 |
| Route | PESIT2J PESIT DCT BAKUR DCT GUBJE DCT GISOK DCT TACQI DCT MANIG DCT BADUR/N0414F310 DCT KORER UM616 NTS/N0336F190 A25 LUSON |
| Aircraft | B738/M-SDE3FGILRWY/SB1 |
Departure
| Time | 2026-05-07 07:34 |
|---|---|
| Airport | Dublin Airport (EIDW) |
Arrival
| Time | 2026-05-07 08:59 |
|---|---|
| Airport | La Rochelle Île de Ré Airport (LFBH) |
| Time | Latitude | Longitude | Altitude | Speed | Heading |
|---|---|---|---|---|---|
| 2026-05-07 07:20 | 53.43112 | -6.25024 | 218 ft | 0 kts | 185° |
| 2026-05-07 07:24 | 53.43122 | -6.25023 | 218 ft | 4 kts | 185° |
| 2026-05-07 07:25 | 53.43174 | -6.25015 | 212 ft | 2 kts | 185° |
| 2026-05-07 07:25 | 53.43192 | -6.25017 | 211 ft | 4 kts | 127° |
| 2026-05-07 07:25 | 53.43200 | -6.25054 | 220 ft | 3 kts | 95° |
| 2026-05-07 07:26 | 53.43202 | -6.25087 | 215 ft | 0 kts | 95° |
| 2026-05-07 07:28 | 53.43202 | -6.25082 | 215 ft | 2 kts | 95° |
| 2026-05-07 07:29 | 53.43199 | -6.25040 | 220 ft | 4 kts | 95° |
| 2026-05-07 07:29 | 53.43196 | -6.24989 | 210 ft | 4 kts | 95° |
| 2026-05-07 07:29 | 53.43193 | -6.24936 | 210 ft | 5 kts | 95° |
| 2026-05-07 07:29 | 53.43189 | -6.24863 | 210 ft | 7 kts | 95° |
| 2026-05-07 07:30 | 53.43184 | -6.24772 | 216 ft | 8 kts | 95° |
| 2026-05-07 07:30 | 53.43189 | -6.24683 | 214 ft | 8 kts | 63° |
| 2026-05-07 07:30 | 53.43194 | -6.24588 | 210 ft | 9 kts | 97° |
| 2026-05-07 07:30 | 53.43189 | -6.24477 | 210 ft | 10 kts | 87° |
| 2026-05-07 07:31 | 53.43234 | -6.24412 | 214 ft | 9 kts | 6° |
| 2026-05-07 07:31 | 53.43298 | -6.24403 | 210 ft | 10 kts | 5° |
| 2026-05-07 07:31 | 53.43339 | -6.24325 | 210 ft | 10 kts | 95° |
| 2026-05-07 07:31 | 53.43332 | -6.24205 | 210 ft | 10 kts | 95° |
| 2026-05-07 07:32 | 53.43326 | -6.24085 | 210 ft | 11 kts | 95° |
| 2026-05-07 07:32 | 53.43319 | -6.23962 | 210 ft | 10 kts | 95° |
| 2026-05-07 07:32 | 53.43348 | -6.23863 | 214 ft | 10 kts | 23° |
| 2026-05-07 07:32 | 53.43422 | -6.23848 | 211 ft | 12 kts | 5° |
| 2026-05-07 07:33 | 53.43483 | -6.23876 | 211 ft | 9 kts | 296° |
| 2026-05-07 07:33 | 53.43495 | -6.24051 | 209 ft | 36 kts | 275° |
| 2026-05-07 07:33 | 53.43541 | -6.24884 | 211 ft | 105 kts | 275° |
| 2026-05-07 07:33 | 53.43626 | -6.26443 | 217 ft | 160 kts | 274° |
| 2026-05-07 07:34 | 53.43728 | -6.28323 | 879 ft | 156 kts | 274° |
| 2026-05-07 07:34 | 53.43983 | -6.30167 | 1481 ft | 173 kts | 297° |
| 2026-05-07 07:34 | 53.44959 | -6.31561 | 1790 ft | 206 kts | 333° |
| 2026-05-07 07:34 | 53.46132 | -6.32994 | 2216 ft | 212 kts | 301° |
| 2026-05-07 07:35 | 53.46919 | -6.35116 | 2802 ft | 217 kts | 300° |
| 2026-05-07 07:35 | 53.47744 | -6.37373 | 3095 ft | 240 kts | 298° |
| 2026-05-07 07:35 | 53.48669 | -6.39859 | 3585 ft | 256 kts | 300° |
| 2026-05-07 07:35 | 53.49670 | -6.42387 | 4339 ft | 263 kts | 302° |
| 2026-05-07 07:36 | 53.50686 | -6.44972 | 5153 ft | 266 kts | 295° |
| 2026-05-07 07:36 | 53.51127 | -6.47942 | 5940 ft | 264 kts | 266° |
| 2026-05-07 07:36 | 53.50681 | -6.50918 | 6675 ft | 265 kts | 239° |
| 2026-05-07 07:36 | 53.49475 | -6.53172 | 7437 ft | 266 kts | 212° |
| 2026-05-07 07:37 | 53.47745 | -6.54223 | 8206 ft | 268 kts | 185° |
| 2026-05-07 07:37 | 53.45882 | -6.53922 | 8789 ft | 273 kts | 167° |
| 2026-05-07 07:37 | 53.44057 | -6.52953 | 9395 ft | 278 kts | 162° |
| 2026-05-07 07:37 | 53.42226 | -6.51842 | 10150 ft | 281 kts | 161° |
| 2026-05-07 07:38 | 53.40332 | -6.50693 | 10436 ft | 301 kts | 162° |
| 2026-05-07 07:38 | 53.38284 | -6.49484 | 10665 ft | 321 kts | 162° |
| 2026-05-07 07:38 | 53.36142 | -6.48250 | 11197 ft | 329 kts | 162° |
| 2026-05-07 07:38 | 53.33955 | -6.47008 | 11892 ft | 333 kts | 163° |
| 2026-05-07 07:39 | 53.31748 | -6.45763 | 12624 ft | 336 kts | 163° |
| 2026-05-07 07:39 | 53.29548 | -6.44360 | 13354 ft | 342 kts | 158° |
| 2026-05-07 07:39 | 53.27375 | -6.42683 | 14040 ft | 346 kts | 156° |
| 2026-05-07 07:39 | 53.25193 | -6.40920 | 14728 ft | 350 kts | 156° |
| 2026-05-07 07:40 | 53.22995 | -6.39149 | 15453 ft | 352 kts | 156° |
| 2026-05-07 07:40 | 53.20773 | -6.37383 | 16158 ft | 355 kts | 156° |
| 2026-05-07 07:40 | 53.18526 | -6.35619 | 16864 ft | 359 kts | 156° |
| 2026-05-07 07:40 | 53.16252 | -6.33850 | 17563 ft | 362 kts | 157° |
| 2026-05-07 07:41 | 53.13956 | -6.32075 | 18254 ft | 366 kts | 157° |
| 2026-05-07 07:41 | 53.11632 | -6.30284 | 18843 ft | 369 kts | 157° |
| 2026-05-07 07:41 | 53.09290 | -6.28483 | 19452 ft | 372 kts | 156° |
| 2026-05-07 07:41 | 53.06933 | -6.26673 | 20046 ft | 375 kts | 156° |
| 2026-05-07 07:42 | 53.04552 | -6.24849 | 20643 ft | 378 kts | 156° |
| 2026-05-07 07:42 | 53.02188 | -6.23039 | 21212 ft | 381 kts | 156° |
| 2026-05-07 07:42 | 52.99774 | -6.21192 | 21778 ft | 384 kts | 156° |
| 2026-05-07 07:42 | 52.97333 | -6.19326 | 22347 ft | 387 kts | 155° |
| 2026-05-07 07:43 | 52.94879 | -6.17452 | 22887 ft | 391 kts | 155° |
| 2026-05-07 07:43 | 52.92399 | -6.15552 | 22956 ft | 393 kts | 155° |
| 2026-05-07 07:43 | 52.89928 | -6.13649 | 22981 ft | 391 kts | 155° |
| 2026-05-07 07:43 | 52.87460 | -6.11749 | 22986 ft | 391 kts | 155° |
| 2026-05-07 07:44 | 52.84988 | -6.09854 | 22983 ft | 392 kts | 155° |
| 2026-05-07 07:44 | 52.82513 | -6.07966 | 22985 ft | 392 kts | 155° |
| 2026-05-07 07:44 | 52.80038 | -6.06077 | 22986 ft | 392 kts | 155° |
| 2026-05-07 07:44 | 52.77562 | -6.04186 | 22978 ft | 392 kts | 155° |
| 2026-05-07 07:45 | 52.75088 | -6.02298 | 22986 ft | 391 kts | 155° |
| 2026-05-07 07:45 | 52.72616 | -6.00414 | 22986 ft | 391 kts | 155° |
| 2026-05-07 07:45 | 52.70149 | -5.98537 | 22982 ft | 391 kts | 155° |
| 2026-05-07 07:45 | 52.67686 | -5.96664 | 22990 ft | 390 kts | 155° |
| 2026-05-07 07:46 | 52.65221 | -5.94793 | 22984 ft | 390 kts | 155° |
| 2026-05-07 07:46 | 52.62757 | -5.92924 | 22984 ft | 390 kts | 155° |
| 2026-05-07 07:46 | 52.60298 | -5.91062 | 22986 ft | 389 kts | 155° |
| 2026-05-07 07:46 | 52.57836 | -5.89200 | 22988 ft | 390 kts | 155° |
| 2026-05-07 07:47 | 52.55373 | -5.87339 | 23000 ft | 390 kts | 155° |
| 2026-05-07 07:47 | 52.52911 | -5.85481 | 22998 ft | 390 kts | 155° |
| 2026-05-07 07:47 | 52.50446 | -5.83623 | 22987 ft | 390 kts | 155° |
| 2026-05-07 07:47 | 52.48012 | -5.81791 | 22995 ft | 390 kts | 155° |
| 2026-05-07 07:48 | 52.45513 | -5.79911 | 22991 ft | 390 kts | 155° |
| 2026-05-07 07:48 | 52.43081 | -5.78085 | 22992 ft | 389 kts | 155° |
| 2026-05-07 07:48 | 52.40590 | -5.76217 | 22995 ft | 389 kts | 156° |
| 2026-05-07 07:48 | 52.38105 | -5.74582 | 23046 ft | 393 kts | 162° |
| 2026-05-07 07:49 | 52.35467 | -5.73303 | 23560 ft | 395 kts | 164° |
| 2026-05-07 07:49 | 52.32815 | -5.72120 | 24107 ft | 396 kts | 164° |
| 2026-05-07 07:49 | 52.30154 | -5.70898 | 24513 ft | 399 kts | 163° |
| 2026-05-07 07:49 | 52.27480 | -5.69615 | 24970 ft | 401 kts | 163° |
| 2026-05-07 07:50 | 52.24801 | -5.68305 | 25424 ft | 403 kts | 162° |
| 2026-05-07 07:50 | 52.22142 | -5.66797 | 25834 ft | 406 kts | 158° |
| 2026-05-07 07:50 | 52.19528 | -5.65041 | 26257 ft | 408 kts | 156° |
| 2026-05-07 07:50 | 52.16912 | -5.63204 | 26662 ft | 410 kts | 156° |
| 2026-05-07 07:51 | 52.14279 | -5.61365 | 27037 ft | 414 kts | 156° |
| 2026-05-07 07:51 | 52.11615 | -5.59538 | 27436 ft | 416 kts | 156° |
| 2026-05-07 07:51 | 52.08936 | -5.57731 | 27830 ft | 418 kts | 157° |
| 2026-05-07 07:51 | 52.06232 | -5.55921 | 28164 ft | 422 kts | 157° |
| 2026-05-07 07:52 | 52.03516 | -5.54082 | 28528 ft | 424 kts | 155° |
| 2026-05-07 07:52 | 52.00830 | -5.52070 | 28930 ft | 425 kts | 153° |
| 2026-05-07 07:52 | 51.98167 | -5.49960 | 29313 ft | 427 kts | 153° |
| 2026-05-07 07:52 | 51.95496 | -5.47808 | 29631 ft | 430 kts | 153° |
| 2026-05-07 07:53 | 51.92806 | -5.45646 | 29951 ft | 433 kts | 153° |
| 2026-05-07 07:53 | 51.90135 | -5.43514 | 30247 ft | 435 kts | 153° |
| 2026-05-07 07:53 | 51.87370 | -5.41324 | 30482 ft | 438 kts | 153° |
| 2026-05-07 07:53 | 51.84665 | -5.39194 | 30779 ft | 439 kts | 153° |
| 2026-05-07 07:54 | 51.81923 | -5.37043 | 31176 ft | 437 kts | 153° |
| 2026-05-07 07:54 | 51.79196 | -5.34911 | 31624 ft | 434 kts | 153° |
| 2026-05-07 07:54 | 51.76478 | -5.32789 | 32015 ft | 433 kts | 153° |
| 2026-05-07 07:54 | 51.73766 | -5.30674 | 32349 ft | 433 kts | 153° |
| 2026-05-07 07:55 | 51.71054 | -5.28562 | 32695 ft | 433 kts | 153° |
| 2026-05-07 07:55 | 51.68345 | -5.26454 | 33078 ft | 431 kts | 153° |
| 2026-05-07 07:55 | 51.65642 | -5.24352 | 33350 ft | 433 kts | 153° |
| 2026-05-07 07:55 | 51.62925 | -5.22243 | 33620 ft | 434 kts | 153° |
| 2026-05-07 07:56 | 51.60208 | -5.20136 | 33990 ft | 432 kts | 153° |
| 2026-05-07 07:56 | 51.57507 | -5.18044 | 34308 ft | 431 kts | 153° |
| 2026-05-07 07:56 | 51.54802 | -5.15953 | 34537 ft | 432 kts | 153° |
| 2026-05-07 07:56 | 51.52094 | -5.13857 | 34742 ft | 433 kts | 152° |
| 2026-05-07 07:57 | 51.49500 | -5.11420 | 34971 ft | 432 kts | 143° |
| 2026-05-07 07:57 | 51.47183 | -5.08361 | 35207 ft | 431 kts | 137° |
| 2026-05-07 07:57 | 51.44950 | -5.05153 | 35459 ft | 431 kts | 138° |
| 2026-05-07 07:57 | 51.42722 | -5.01934 | 35723 ft | 430 kts | 138° |
| 2026-05-07 07:58 | 51.40490 | -4.98727 | 35923 ft | 431 kts | 138° |
| 2026-05-07 07:58 | 51.38245 | -4.95525 | 36099 ft | 433 kts | 139° |
| 2026-05-07 07:58 | 51.35989 | -4.92329 | 36274 ft | 434 kts | 139° |
| 2026-05-07 07:58 | 51.33718 | -4.89130 | 36423 ft | 436 kts | 139° |
| 2026-05-07 07:59 | 51.31438 | -4.85927 | 36660 ft | 436 kts | 139° |
| 2026-05-07 07:59 | 51.29159 | -4.82732 | 36817 ft | 437 kts | 139° |
| 2026-05-07 07:59 | 51.26870 | -4.79527 | 36998 ft | 438 kts | 139° |
| 2026-05-07 08:00 | 51.22276 | -4.73106 | 37016 ft | 439 kts | 140° |
| 2026-05-07 08:00 | 51.17666 | -4.66679 | 37034 ft | 441 kts | 139° |
| 2026-05-07 08:01 | 51.13041 | -4.60248 | 37037 ft | 442 kts | 140° |
| 2026-05-07 08:01 | 51.08397 | -4.53806 | 37033 ft | 443 kts | 139° |
| 2026-05-07 08:02 | 51.03878 | -4.47634 | 37026 ft | 444 kts | 143° |
| 2026-05-07 08:02 | 50.98734 | -4.42250 | 37028 ft | 443 kts | 149° |
| 2026-05-07 08:03 | 50.93475 | -4.37160 | 37034 ft | 442 kts | 149° |
| 2026-05-07 08:03 | 50.88237 | -4.32049 | 37030 ft | 442 kts | 149° |
| 2026-05-07 08:04 | 50.83065 | -4.26942 | 37031 ft | 441 kts | 148° |
| 2026-05-07 08:04 | 50.77877 | -4.21802 | 37026 ft | 440 kts | 149° |
| 2026-05-07 08:05 | 50.72697 | -4.16681 | 37037 ft | 439 kts | 149° |
| 2026-05-07 08:05 | 50.67520 | -4.11579 | 37036 ft | 439 kts | 149° |
| 2026-05-07 08:06 | 50.62343 | -4.06491 | 37043 ft | 439 kts | 149° |
| 2026-05-07 08:06 | 50.57154 | -4.01405 | 37033 ft | 439 kts | 149° |
| 2026-05-07 08:07 | 50.51968 | -3.96335 | 37040 ft | 440 kts | 149° |
| 2026-05-07 08:07 | 50.46773 | -3.91269 | 37043 ft | 440 kts | 149° |
| 2026-05-07 08:08 | 50.41556 | -3.86197 | 37047 ft | 441 kts | 149° |
| 2026-05-07 08:08 | 50.36332 | -3.81130 | 37048 ft | 442 kts | 149° |
| 2026-05-07 08:09 | 50.31100 | -3.76069 | 37048 ft | 443 kts | 149° |
| 2026-05-07 08:09 | 50.25851 | -3.71004 | 37041 ft | 443 kts | 149° |
| 2026-05-07 08:10 | 50.20599 | -3.65950 | 37046 ft | 444 kts | 149° |
| 2026-05-07 08:10 | 50.15336 | -3.60897 | 37041 ft | 444 kts | 149° |
| 2026-05-07 08:11 | 50.10075 | -3.55861 | 37035 ft | 444 kts | 150° |
| 2026-05-07 08:11 | 50.04815 | -3.50839 | 37046 ft | 443 kts | 150° |
| 2026-05-07 08:12 | 50.00443 | -3.46674 | 37035 ft | 443 kts | 150° |
| 2026-05-07 08:12 | 49.95184 | -3.41676 | 37042 ft | 443 kts | 150° |
| 2026-05-07 08:13 | 49.89925 | -3.36690 | 37034 ft | 443 kts | 150° |
| 2026-05-07 08:13 | 49.84669 | -3.31718 | 37039 ft | 443 kts | 150° |
| 2026-05-07 08:14 | 49.79356 | -3.26907 | 37020 ft | 441 kts | 157° |
| 2026-05-07 08:14 | 49.73518 | -3.24251 | 37045 ft | 437 kts | 171° |
| 2026-05-07 08:15 | 49.67527 | -3.22592 | 37028 ft | 438 kts | 171° |
| 2026-05-07 08:15 | 49.61531 | -3.20924 | 37035 ft | 438 kts | 171° |
| 2026-05-07 08:16 | 49.55537 | -3.19207 | 37037 ft | 438 kts | 171° |
| 2026-05-07 08:16 | 49.49544 | -3.17471 | 37035 ft | 439 kts | 171° |
| 2026-05-07 08:17 | 49.43543 | -3.15732 | 37032 ft | 439 kts | 171° |
| 2026-05-07 08:17 | 49.37543 | -3.13999 | 37032 ft | 439 kts | 171° |
| 2026-05-07 08:18 | 49.31581 | -3.12282 | 37032 ft | 439 kts | 171° |
| 2026-05-07 08:18 | 49.25573 | -3.10556 | 37022 ft | 439 kts | 171° |
| 2026-05-07 08:19 | 49.19571 | -3.08837 | 37031 ft | 439 kts | 171° |
| 2026-05-07 08:19 | 49.13567 | -3.07121 | 37028 ft | 439 kts | 171° |
| 2026-05-07 08:20 | 49.07563 | -3.05409 | 37024 ft | 439 kts | 171° |
| 2026-05-07 08:20 | 49.01565 | -3.03703 | 37021 ft | 438 kts | 171° |
| 2026-05-07 08:21 | 48.95575 | -3.02003 | 37029 ft | 438 kts | 171° |
| 2026-05-07 08:21 | 48.89579 | -3.00306 | 37025 ft | 438 kts | 171° |
| 2026-05-07 08:22 | 48.83593 | -2.98616 | 37021 ft | 438 kts | 171° |
| 2026-05-07 08:22 | 48.77609 | -2.96929 | 37023 ft | 437 kts | 171° |
| 2026-05-07 08:23 | 48.71669 | -2.95259 | 37028 ft | 437 kts | 171° |
| 2026-05-07 08:23 | 48.65776 | -2.92932 | 37031 ft | 438 kts | 165° |
| 2026-05-07 08:24 | 48.59946 | -2.90227 | 37013 ft | 438 kts | 165° |
| 2026-05-07 08:24 | 48.54115 | -2.87548 | 37021 ft | 438 kts | 165° |
| 2026-05-07 08:25 | 48.48269 | -2.84925 | 37030 ft | 438 kts | 165° |
| 2026-05-07 08:25 | 48.42422 | -2.82333 | 37030 ft | 438 kts | 165° |
| 2026-05-07 08:26 | 48.33682 | -2.78474 | 37038 ft | 438 kts | 165° |
| 2026-05-07 08:26 | 48.27836 | -2.75900 | 36646 ft | 435 kts | 165° |
| 2026-05-07 08:27 | 48.24961 | -2.74634 | 36285 ft | 428 kts | 165° |
| 2026-05-07 08:27 | 48.22115 | -2.73383 | 35928 ft | 423 kts | 165° |
| 2026-05-07 08:27 | 48.19303 | -2.72149 | 35529 ft | 420 kts | 165° |
| 2026-05-07 08:27 | 48.16509 | -2.70925 | 35141 ft | 416 kts | 165° |
| 2026-05-07 08:28 | 48.13741 | -2.69714 | 34757 ft | 413 kts | 165° |
| 2026-05-07 08:28 | 48.10992 | -2.68512 | 34384 ft | 410 kts | 165° |
| 2026-05-07 08:28 | 48.08263 | -2.67320 | 34003 ft | 407 kts | 165° |
| 2026-05-07 08:28 | 48.05553 | -2.66138 | 33570 ft | 404 kts | 165° |
| 2026-05-07 08:29 | 48.02862 | -2.64965 | 33169 ft | 401 kts | 165° |
| 2026-05-07 08:29 | 48.00197 | -2.63805 | 32788 ft | 397 kts | 165° |
| 2026-05-07 08:29 | 47.97554 | -2.62656 | 32407 ft | 394 kts | 165° |
| 2026-05-07 08:29 | 47.94937 | -2.61519 | 32055 ft | 390 kts | 165° |
| 2026-05-07 08:30 | 47.92343 | -2.60393 | 31688 ft | 387 kts | 165° |
| 2026-05-07 08:30 | 47.89772 | -2.59278 | 31331 ft | 384 kts | 165° |
| 2026-05-07 08:30 | 47.87216 | -2.58172 | 30982 ft | 381 kts | 166° |
| 2026-05-07 08:30 | 47.84687 | -2.57078 | 30631 ft | 378 kts | 165° |
| 2026-05-07 08:31 | 47.82170 | -2.55990 | 30285 ft | 375 kts | 165° |
| 2026-05-07 08:31 | 47.79674 | -2.54912 | 29911 ft | 372 kts | 165° |
| 2026-05-07 08:31 | 47.77196 | -2.53843 | 29519 ft | 369 kts | 165° |
| 2026-05-07 08:31 | 47.74746 | -2.52787 | 29180 ft | 364 kts | 165° |
| 2026-05-07 08:32 | 47.72321 | -2.51743 | 28809 ft | 361 kts | 165° |
| 2026-05-07 08:32 | 47.69966 | -2.50512 | 28455 ft | 358 kts | 155° |
| 2026-05-07 08:32 | 47.67860 | -2.48575 | 28158 ft | 355 kts | 143° |
| 2026-05-07 08:32 | 47.66062 | -2.46091 | 27868 ft | 353 kts | 133° |
| 2026-05-07 08:33 | 47.64458 | -2.43362 | 27535 ft | 350 kts | 132° |
| 2026-05-07 08:33 | 47.62884 | -2.40616 | 27182 ft | 348 kts | 132° |
| 2026-05-07 08:33 | 47.61324 | -2.37890 | 26839 ft | 345 kts | 132° |
| 2026-05-07 08:33 | 47.59789 | -2.35222 | 26512 ft | 343 kts | 133° |
| 2026-05-07 08:34 | 47.58240 | -2.32547 | 26187 ft | 342 kts | 133° |
| 2026-05-07 08:34 | 47.56689 | -2.29881 | 25844 ft | 341 kts | 133° |
| 2026-05-07 08:34 | 47.55132 | -2.27217 | 25530 ft | 345 kts | 133° |
| 2026-05-07 08:34 | 47.53534 | -2.24490 | 25204 ft | 355 kts | 133° |
| 2026-05-07 08:35 | 47.51904 | -2.21713 | 24847 ft | 357 kts | 133° |
| 2026-05-07 08:35 | 47.50274 | -2.18937 | 24488 ft | 355 kts | 133° |
| 2026-05-07 08:35 | 47.48657 | -2.16185 | 24141 ft | 354 kts | 133° |
| 2026-05-07 08:35 | 47.47039 | -2.13435 | 23787 ft | 352 kts | 133° |
| 2026-05-07 08:36 | 47.45454 | -2.10746 | 23419 ft | 351 kts | 133° |
| 2026-05-07 08:36 | 47.43849 | -2.08025 | 23014 ft | 349 kts | 133° |
| 2026-05-07 08:36 | 47.42256 | -2.05327 | 22636 ft | 347 kts | 133° |
| 2026-05-07 08:36 | 47.40675 | -2.02652 | 22285 ft | 344 kts | 133° |
| 2026-05-07 08:37 | 47.39103 | -1.99992 | 21959 ft | 341 kts | 133° |
| 2026-05-07 08:37 | 47.37543 | -1.97358 | 21614 ft | 339 kts | 133° |
| 2026-05-07 08:37 | 47.35993 | -1.94744 | 21273 ft | 337 kts | 133° |
| 2026-05-07 08:37 | 47.34455 | -1.92153 | 20948 ft | 334 kts | 133° |
| 2026-05-07 08:38 | 47.32946 | -1.89608 | 20602 ft | 333 kts | 133° |
| 2026-05-07 08:38 | 47.31423 | -1.87038 | 20256 ft | 332 kts | 133° |
| 2026-05-07 08:38 | 47.29909 | -1.84485 | 19924 ft | 330 kts | 133° |
| 2026-05-07 08:38 | 47.28404 | -1.81949 | 19597 ft | 328 kts | 133° |
| 2026-05-07 08:39 | 47.26899 | -1.79415 | 19271 ft | 327 kts | 133° |
| 2026-05-07 08:39 | 47.25406 | -1.76904 | 18949 ft | 325 kts | 133° |
| 2026-05-07 08:39 | 47.23917 | -1.74402 | 18626 ft | 324 kts | 133° |
| 2026-05-07 08:39 | 47.22437 | -1.71916 | 18303 ft | 323 kts | 133° |
| 2026-05-07 08:40 | 47.20958 | -1.69433 | 17942 ft | 321 kts | 133° |
| 2026-05-07 08:40 | 47.19486 | -1.66967 | 17599 ft | 320 kts | 133° |
| 2026-05-07 08:40 | 47.18025 | -1.64522 | 17267 ft | 317 kts | 133° |
| 2026-05-07 08:40 | 47.16493 | -1.62215 | 16922 ft | 313 kts | 145° |
| 2026-05-07 08:41 | 47.14619 | -1.60667 | 16635 ft | 306 kts | 162° |
| 2026-05-07 08:41 | 47.12588 | -1.59764 | 16331 ft | 303 kts | 166° |
| 2026-05-07 08:41 | 47.10556 | -1.58971 | 16009 ft | 302 kts | 167° |
| 2026-05-07 08:41 | 47.08530 | -1.58197 | 15701 ft | 300 kts | 167° |
| 2026-05-07 08:42 | 47.06519 | -1.57426 | 15395 ft | 298 kts | 167° |
| 2026-05-07 08:42 | 47.04520 | -1.56652 | 15091 ft | 296 kts | 167° |
| 2026-05-07 08:42 | 47.02531 | -1.55876 | 14793 ft | 295 kts | 167° |
| 2026-05-07 08:42 | 47.00554 | -1.55100 | 14494 ft | 293 kts | 167° |
| 2026-05-07 08:43 | 46.98585 | -1.54324 | 14198 ft | 292 kts | 167° |
| 2026-05-07 08:43 | 46.96628 | -1.53552 | 13906 ft | 291 kts | 167° |
| 2026-05-07 08:43 | 46.94679 | -1.52782 | 13572 ft | 289 kts | 167° |
| 2026-05-07 08:43 | 46.92762 | -1.52024 | 13258 ft | 288 kts | 167° |
| 2026-05-07 08:44 | 46.90833 | -1.51262 | 12946 ft | 286 kts | 167° |
| 2026-05-07 08:44 | 46.88919 | -1.50506 | 12636 ft | 284 kts | 167° |
| 2026-05-07 08:44 | 46.87018 | -1.49755 | 12351 ft | 282 kts | 167° |
| 2026-05-07 08:44 | 46.85132 | -1.49010 | 12059 ft | 280 kts | 167° |
| 2026-05-07 08:45 | 46.83253 | -1.48270 | 11764 ft | 279 kts | 167° |
| 2026-05-07 08:45 | 46.81386 | -1.47534 | 11476 ft | 277 kts | 167° |
| 2026-05-07 08:45 | 46.79529 | -1.46802 | 11180 ft | 276 kts | 167° |
| 2026-05-07 08:45 | 46.77677 | -1.46073 | 10901 ft | 275 kts | 167° |
| 2026-05-07 08:46 | 46.75832 | -1.45348 | 10615 ft | 274 kts | 167° |
| 2026-05-07 08:46 | 46.73993 | -1.44624 | 10330 ft | 274 kts | 167° |
| 2026-05-07 08:46 | 46.72164 | -1.43906 | 10127 ft | 269 kts | 167° |
| 2026-05-07 08:46 | 46.70376 | -1.43203 | 9944 ft | 265 kts | 167° |
| 2026-05-07 08:47 | 46.68597 | -1.42505 | 9648 ft | 265 kts | 167° |
| 2026-05-07 08:47 | 46.66818 | -1.41809 | 9363 ft | 264 kts | 167° |
| 2026-05-07 08:47 | 46.65050 | -1.41116 | 9086 ft | 263 kts | 167° |
| 2026-05-07 08:47 | 46.63287 | -1.40426 | 8808 ft | 262 kts | 167° |
| 2026-05-07 08:48 | 46.61532 | -1.39739 | 8546 ft | 260 kts | 167° |
| 2026-05-07 08:48 | 46.59785 | -1.39056 | 8274 ft | 259 kts | 166° |
| 2026-05-07 08:48 | 46.58049 | -1.38359 | 8003 ft | 258 kts | 166° |
| 2026-05-07 08:48 | 46.56323 | -1.37659 | 7745 ft | 257 kts | 166° |
| 2026-05-07 08:49 | 46.54598 | -1.36959 | 7470 ft | 256 kts | 166° |
| 2026-05-07 08:49 | 46.52884 | -1.36266 | 7206 ft | 255 kts | 165° |
| 2026-05-07 08:49 | 46.51178 | -1.35577 | 6950 ft | 254 kts | 165° |
| 2026-05-07 08:49 | 46.49466 | -1.35252 | 6665 ft | 252 kts | 188° |
| 2026-05-07 08:50 | 46.47759 | -1.35793 | 6430 ft | 250 kts | 193° |
| 2026-05-07 08:50 | 46.46062 | -1.36382 | 6138 ft | 250 kts | 193° |
| 2026-05-07 08:50 | 46.44373 | -1.36962 | 5858 ft | 249 kts | 193° |
| 2026-05-07 08:50 | 46.42686 | -1.37536 | 5603 ft | 248 kts | 193° |
| 2026-05-07 08:51 | 46.41003 | -1.38106 | 5375 ft | 246 kts | 193° |
| 2026-05-07 08:51 | 46.39359 | -1.38660 | 5256 ft | 239 kts | 193° |
| 2026-05-07 08:51 | 46.37761 | -1.39195 | 5140 ft | 232 kts | 193° |
| 2026-05-07 08:51 | 46.36208 | -1.39715 | 5038 ft | 225 kts | 192° |
| 2026-05-07 08:52 | 46.34709 | -1.40215 | 4937 ft | 218 kts | 193° |
| 2026-05-07 08:52 | 46.33254 | -1.40700 | 4839 ft | 217 kts | 193° |
| 2026-05-07 08:52 | 46.31768 | -1.41196 | 4613 ft | 219 kts | 192° |
| 2026-05-07 08:52 | 46.30336 | -1.41819 | 4409 ft | 212 kts | 201° |
| 2026-05-07 08:53 | 46.28996 | -1.42616 | 4186 ft | 204 kts | 201° |
| 2026-05-07 08:53 | 46.27709 | -1.43388 | 3973 ft | 196 kts | 201° |
| 2026-05-07 08:53 | 46.26453 | -1.44129 | 3751 ft | 193 kts | 200° |
| 2026-05-07 08:53 | 46.25208 | -1.44856 | 3552 ft | 193 kts | 200° |
| 2026-05-07 08:54 | 46.23954 | -1.45585 | 3347 ft | 195 kts | 200° |
| 2026-05-07 08:54 | 46.22685 | -1.46285 | 3126 ft | 195 kts | 192° |
| 2026-05-07 08:54 | 46.21393 | -1.46075 | 2948 ft | 188 kts | 149° |
| 2026-05-07 08:54 | 46.20472 | -1.44761 | 2845 ft | 188 kts | 125° |
| 2026-05-07 08:55 | 46.19751 | -1.43237 | 2722 ft | 179 kts | 124° |
| 2026-05-07 08:55 | 46.19082 | -1.41811 | 2556 ft | 164 kts | 124° |
| 2026-05-07 08:55 | 46.18604 | -1.40388 | 2421 ft | 156 kts | 98° |
| 2026-05-07 08:55 | 46.18536 | -1.38831 | 2400 ft | 159 kts | 96° |
| 2026-05-07 08:56 | 46.18460 | -1.37230 | 2300 ft | 159 kts | 95° |
| 2026-05-07 08:56 | 46.18406 | -1.35634 | 2173 ft | 158 kts | 94° |
| 2026-05-07 08:56 | 46.18356 | -1.34042 | 2065 ft | 160 kts | 95° |
| 2026-05-07 08:56 | 46.18324 | -1.32981 | 2026 ft | 159 kts | 95° |
| 2026-05-07 08:57 | 46.18274 | -1.31360 | 1796 ft | 162 kts | 95° |
| 2026-05-07 08:57 | 46.18225 | -1.29743 | 1534 ft | 160 kts | 94° |
| 2026-05-07 08:57 | 46.18178 | -1.28167 | 1286 ft | 154 kts | 94° |
| 2026-05-07 08:57 | 46.18133 | -1.26697 | 1083 ft | 141 kts | 94° |
| 2026-05-07 08:58 | 46.18092 | -1.25331 | 874 ft | 135 kts | 94° |
| 2026-05-07 08:58 | 46.18050 | -1.23948 | 673 ft | 139 kts | 93° |
| 2026-05-07 08:58 | 46.18009 | -1.22552 | 423 ft | 138 kts | 93° |
| 2026-05-07 08:58 | 46.17969 | -1.21187 | 188 ft | 136 kts | 93° |
| 2026-05-07 08:59 | 46.17929 | -1.19844 | 74 ft | 118 kts | 92° |
| 2026-05-07 08:59 | 46.17910 | -1.19218 | 72 ft | 17 kts | 97° |
| 2026-05-07 08:59 | 46.17905 | -1.19156 | 72 ft | 3 kts | 39° |
| 2026-05-07 08:59 | 46.17911 | -1.19168 | 70 ft | 2 kts | 278° |
| 2026-05-07 09:00 | 46.17912 | -1.19196 | 72 ft | 5 kts | 272° |
| 2026-05-07 09:00 | 46.17914 | -1.19277 | 72 ft | 11 kts | 272° |
| 2026-05-07 09:00 | 46.17916 | -1.19393 | 74 ft | 11 kts | 272° |
| 2026-05-07 09:00 | 46.17901 | -1.19484 | 74 ft | 9 kts | 214° |
| 2026-05-07 09:01 | 46.17841 | -1.19494 | 73 ft | 9 kts | 182° |
| 2026-05-07 09:01 | 46.17782 | -1.19497 | 71 ft | 8 kts | 182° |
| 2026-05-07 09:01 | 46.17726 | -1.19500 | 70 ft | 7 kts | 178° |
| 2026-05-07 09:01 | 46.17688 | -1.19469 | 71 ft | 6 kts | 142° |
| 2026-05-07 09:02 | 46.17687 | -1.19422 | 76 ft | 5 kts | 75° |
| 2026-05-07 09:02 | 46.17682 | -1.19410 | 76 ft | 1 kts | 128° |
| 2026-05-07 09:02 | 46.17668 | -1.19400 | 73 ft | 4 kts | 166° |
| 2026-05-07 09:02 | 46.17650 | -1.19411 | 74 ft | 1 kts | 254° |
| 2026-05-07 09:03 | 46.17655 | -1.19425 | 69 ft | 1 kts | 303° |
| 2026-05-07 09:03 | 46.17657 | -1.19427 | 71 ft | 0 kts | 308° |